Time;durP1;ratioP1;P1;durP2;ratioP2;P2;SDS_P1;SDS_P2;PMS_P1;PMS_P2;Temp;Humidity;BMP_temperature;BMP_pressure;BME280_temperature;BME280_humidity;BME280_pressure;Samples;Min_cycle;Max_cycle;Signal;HPM_P1;HPM_P2
2021/05/28 00:02:21;;;;;;;4.00;3.80;;;16.10;95.70;;;;;;5048521;28;20203;-72
2021/05/28 00:04:47;;;;;;;3.50;3.40;;;16.10;95.40;;;;;;5048683;28;20686;-70
2021/05/28 00:07:13;;;;;;;3.15;2.97;;;16.10;95.30;;;;;;5047455;28;20543;-71
2021/05/28 00:09:40;;;;;;;3.90;3.65;;;16.00;95.30;;;;;;5044392;28;20199;-70
2021/05/28 00:12:07;;;;;;;3.97;3.67;;;16.00;95.50;;;;;;5046503;28;20192;-70
2021/05/28 00:14:33;;;;;;;5.75;5.25;;;16.00;95.50;;;;;;5051529;28;20680;-71
2021/05/28 00:16:58;;;;;;;5.90;5.40;;;16.00;95.60;;;;;;5048867;28;20331;-72
2021/05/28 00:19:24;;;;;;;5.78;5.18;;;15.90;95.50;;;;;;5055286;28;20214;-71
2021/05/28 00:21:50;;;;;;;5.65;5.25;;;15.90;95.40;;;;;;5050041;28;20255;-71
2021/05/28 00:24:15;;;;;;;6.03;5.43;;;15.90;95.60;;;;;;5049137;28;20547;-71
2021/05/28 00:26:41;;;;;;;5.25;4.85;;;15.90;95.60;;;;;;5050102;28;20184;-71
2021/05/28 00:29:07;;;;;;;5.43;5.00;;;15.90;95.70;;;;;;5048806;28;20276;-71
2021/05/28 00:31:32;;;;;;;5.40;4.90;;;15.90;95.80;;;;;;5057895;28;20183;-71
2021/05/28 00:33:58;;;;;;;4.25;4.03;;;15.80;96.10;;;;;;5046898;28;20190;-71
2021/05/28 00:36:24;;;;;;;6.97;4.43;;;15.80;96.30;;;;;;5052211;28;20669;-71
2021/05/28 00:38:49;;;;;;;4.38;4.07;;;15.70;97.00;;;;;;5047801;28;20666;-72
2021/05/28 00:41:15;;;;;;;4.45;4.10;;;15.70;97.00;;;;;;5057758;28;20183;-72
2021/05/28 00:43:41;;;;;;;4.35;4.03;;;15.60;97.20;;;;;;5050840;28;20180;-72
2021/05/28 00:46:07;;;;;;;4.38;3.97;;;15.50;96.80;;;;;;5050068;28;20661;-71
2021/05/28 00:48:33;;;;;;;5.93;4.43;;;15.50;96.60;;;;;;5049168;28;20183;-71
2021/05/28 00:50:58;;;;;;;4.93;4.63;;;15.50;96.70;;;;;;5051252;28;20188;-71
2021/05/28 00:53:27;;;;;;;3.83;3.60;;;15.50;96.50;;;;;;5050292;28;20192;-70
2021/05/28 00:55:53;;;;;;;4.80;4.43;;;15.40;96.40;;;;;;5050652;28;20182;-70
2021/05/28 00:58:19;;;;;;;4.32;4.03;;;15.40;96.50;;;;;;5051414;28;20254;-71
2021/05/28 01:00:47;;;;;;;4.43;4.13;;;15.40;96.50;;;;;;5056079;28;20825;-71
2021/05/28 01:03:12;;;;;;;4.63;4.22;;;15.40;96.80;;;;;;5050014;28;20233;-71
2021/05/28 01:05:38;;;;;;;4.15;3.95;;;15.30;97.20;;;;;;5050413;28;20644;-71
2021/05/28 01:08:04;;;;;;;3.88;3.58;;;15.30;97.40;;;;;;5050142;28;20637;-71
2021/05/28 01:10:30;;;;;;;4.55;4.20;;;15.30;97.40;;;;;;5043372;28;20695;-71
2021/05/28 01:13:07;;;;;;;7.75;4.20;;;15.30;97.40;;;;;;5049886;28;20191;-71
2021/05/28 01:15:34;;;;;;;5.63;4.05;;;15.30;97.20;;;;;;5050232;28;20269;-71
2021/05/28 01:18:00;;;;;;;5.47;4.40;;;15.30;97.90;;;;;;5049578;28;20329;-71
2021/05/28 01:20:25;;;;;;;5.15;4.75;;;15.30;98.20;;;;;;5054900;28;20187;-71
2021/05/28 01:22:58;;;;;;;6.05;4.72;;;15.30;98.10;;;;;;5049668;28;20266;-71
2021/05/28 01:25:25;;;;;;;5.30;4.72;;;15.40;98.10;;;;;;5049431;28;20179;-71
2021/05/28 01:27:51;;;;;;;5.55;5.03;;;15.40;98.50;;;;;;5052478;28;20184;-71
2021/05/28 01:30:17;;;;;;;5.35;4.88;;;15.40;98.40;;;;;;5053619;28;20186;-71
2021/05/28 01:32:44;;;;;;;4.53;4.22;;;15.30;98.30;;;;;;5061051;28;20266;-71
2021/05/28 01:35:11;;;;;;;4.25;3.95;;;15.30;98.10;;;;;;5038695;28;20215;-71
2021/05/28 01:37:37;;;;;;;4.38;4.07;;;15.30;97.90;;;;;;5048094;28;20211;-71
2021/05/28 01:40:03;;;;;;;4.75;4.20;;;15.20;97.90;;;;;;5053850;28;20638;-71
2021/05/28 01:42:29;;;;;;;5.18;4.70;;;15.20;97.80;;;;;;5049593;28;20235;-71
2021/05/28 01:44:57;;;;;;;5.32;4.88;;;15.20;97.80;;;;;;5049253;28;20992;-72
2021/05/28 01:47:23;;;;;;;9.07;5.55;;;15.10;97.70;;;;;;5052188;28;20176;-71
2021/05/28 01:49:48;;;;;;;5.82;5.32;;;15.10;97.70;;;;;;5048403;28;20208;-71
2021/05/28 01:52:14;;;;;;;6.28;5.68;;;15.10;97.70;;;;;;5047945;28;20190;-71
2021/05/28 01:54:40;;;;;;;5.38;4.72;;;15.10;97.70;;;;;;5051317;28;20188;-71
2021/05/28 01:57:09;;;;;;;5.07;4.65;;;15.00;97.70;;;;;;5045961;28;20266;-71
2021/05/28 01:59:35;;;;;;;7.03;5.13;;;15.00;98.30;;;;;;5041354;28;20221;-71
2021/05/28 02:02:00;;;;;;;5.10;4.78;;;15.00;98.00;;;;;;5052074;28;20243;-71
2021/05/28 02:04:27;;;;;;;4.55;4.20;;;15.00;98.10;;;;;;5048656;28;20640;-71
2021/05/28 02:07:12;;;;;;;6.75;5.18;;;15.00;98.00;;;;;;5054660;28;20194;-71
2021/05/28 02:09:38;;;;;;;7.55;5.00;;;15.00;97.70;;;;;;5051075;28;20232;-71
2021/05/28 02:12:05;;;;;;;5.55;5.03;;;15.00;98.20;;;;;;5050685;28;20774;-72
2021/05/28 02:14:30;;;;;;;4.32;3.95;;;15.00;98.30;;;;;;5047553;28;20196;-71
2021/05/28 02:16:57;;;;;;;5.53;4.03;;;15.00;98.40;;;;;;5041133;28;20241;-71
2021/05/28 02:19:23;;;;;;;4.68;3.95;;;15.00;98.40;;;;;;5050751;28;20188;-71
2021/05/28 02:21:50;;;;;;;4.30;4.07;;;15.00;98.30;;;;;;5048571;28;20211;-70
2021/05/28 02:24:17;;;;;;;5.07;4.60;;;15.00;98.30;;;;;;5048944;28;20337;-73
2021/05/28 02:26:45;;;;;;;5.70;4.53;;;15.00;98.30;;;;;;5047951;28;20219;-72
2021/05/28 02:29:12;;;;;;;4.88;4.43;;;15.00;98.30;;;;;;5048221;28;20187;-73
2021/05/28 02:31:37;;;;;;;5.90;5.25;;;15.00;98.50;;;;;;5047473;28;20732;-71
2021/05/28 02:34:04;;;;;;;4.60;4.20;;;15.00;98.50;;;;;;5051654;28;20183;-72
2021/05/28 02:36:30;;;;;;;5.78;4.05;;;15.10;98.50;;;;;;5043250;28;20184;-71
2021/05/28 02:38:56;;;;;;;4.28;3.97;;;15.10;98.50;;;;;;5052737;28;20182;-71
2021/05/28 02:41:21;;;;;;;5.72;5.22;;;15.10;98.50;;;;;;5046156;28;20190;-71
2021/05/28 02:43:47;;;;;;;4.60;4.20;;;15.10;98.40;;;;;;5048058;28;20633;-71
2021/05/28 02:46:13;;;;;;;4.63;4.32;;;15.10;98.40;;;;;;5050440;28;20188;-71
2021/05/28 02:48:39;;;;;;;4.03;3.72;;;15.10;98.30;;;;;;5048176;28;20584;-71
2021/05/28 02:51:05;;;;;;;4.13;3.90;;;15.20;98.30;;;;;;5047324;28;20187;-71
2021/05/28 02:53:34;;;;;;;4.10;3.88;;;15.20;98.20;;;;;;5051700;28;20184;-71
2021/05/28 02:56:04;;;;;;;5.13;3.60;;;15.20;98.00;;;;;;5052373;28;20188;-71
2021/05/28 02:58:29;;;;;;;3.50;3.22;;;15.20;97.70;;;;;;5052737;28;20210;-71
2021/05/28 03:00:55;;;;;;;3.65;3.45;;;15.30;97.80;;;;;;5045735;28;20211;-71
2021/05/28 03:03:21;;;;;;;5.13;3.60;;;15.30;97.80;;;;;;5047462;28;20222;-71
2021/05/28 03:05:47;;;;;;;4.30;3.92;;;15.30;97.90;;;;;;5047523;28;20186;-71
2021/05/28 03:08:13;;;;;;;5.03;4.13;;;15.30;98.10;;;;;;5040576;28;20206;-70
2021/05/28 03:10:39;;;;;;;5.57;4.32;;;15.30;98.20;;;;;;5048653;28;20683;-70
2021/05/28 03:13:04;;;;;;;5.68;4.40;;;15.30;98.40;;;;;;5046704;28;20207;-70
2021/05/28 03:15:30;;;;;;;9.93;3.83;;;15.40;98.50;;;;;;5046569;28;20207;-71
2021/05/28 03:17:57;;;;;;;3.85;3.65;;;15.40;98.20;;;;;;5044349;28;20183;-70
2021/05/28 03:20:26;;;;;;;6.03;4.35;;;15.40;98.30;;;;;;5043459;28;20188;-71
2021/05/28 03:22:53;;;;;;;3.83;3.53;;;15.40;98.10;;;;;;5041676;28;20211;-72
2021/05/28 03:25:19;;;;;;;3.85;3.55;;;15.50;97.90;;;;;;5048110;28;20256;-72
2021/05/28 03:27:48;;;;;;;4.13;3.72;;;15.50;97.80;;;;;;5048436;28;20183;-72
2021/05/28 03:30:14;;;;;;;3.80;3.35;;;15.50;97.80;;;;;;5048161;28;20175;-72
2021/05/28 03:32:40;;;;;;;3.85;3.50;;;15.60;97.70;;;;;;5046628;28;20191;-72
2021/05/28 03:35:06;;;;;;;3.53;3.33;;;15.60;97.70;;;;;;5048335;28;20953;-72
2021/05/28 03:37:33;;;;;;;3.80;3.60;;;15.60;97.60;;;;;;5046161;28;20187;-71
2021/05/28 03:40:00;;;;;;;3.08;2.92;;;15.60;97.50;;;;;;5043825;28;20609;-72
2021/05/28 03:42:25;;;;;;;4.38;4.13;;;15.70;97.50;;;;;;5043908;28;20207;-72
2021/05/28 03:44:51;;;;;;;4.65;3.80;;;15.70;97.80;;;;;;5044467;28;20692;-71
2021/05/28 03:47:18;;;;;;;7.85;4.00;;;15.70;97.90;;;;;;5046606;28;20180;-70
2021/05/28 03:49:44;;;;;;;5.72;4.32;;;15.70;97.70;;;;;;5045219;28;20182;-71
2021/05/28 03:52:10;;;;;;;4.22;3.95;;;15.70;97.60;;;;;;5046434;28;20211;-71
2021/05/28 03:54:36;;;;;;;5.07;4.63;;;15.70;97.50;;;;;;5047068;28;20184;-71
2021/05/28 03:57:03;;;;;;;6.32;5.03;;;15.70;97.50;;;;;;5047627;28;20203;-72
2021/05/28 03:59:28;;;;;;;4.38;4.05;;;15.70;97.40;;;;;;5050653;28;20312;-71
2021/05/28 04:01:54;;;;;;;4.72;4.03;;;15.80;97.70;;;;;;5049424;28;20780;-72
2021/05/28 04:04:20;;;;;;;4.68;4.00;;;15.80;97.50;;;;;;5049818;28;20175;-71
2021/05/28 04:06:46;;;;;;;6.40;4.38;;;15.80;97.40;;;;;;5048686;28;20180;-71
2021/05/28 04:09:11;;;;;;;4.53;4.22;;;15.90;97.20;;;;;;5049716;28;20637;-71
2021/05/28 04:11:37;;;;;;;5.35;4.55;;;16.00;97.20;;;;;;5046090;28;20183;-72
2021/05/28 04:14:03;;;;;;;4.90;4.50;;;16.00;96.90;;;;;;5038068;28;20195;-72
2021/05/28 04:16:29;;;;;;;4.00;3.70;;;16.10;96.90;;;;;;5048653;28;20175;-71
2021/05/28 04:18:54;;;;;;;3.72;3.40;;;16.10;97.00;;;;;;5049883;28;20184;-71
2021/05/28 04:21:20;;;;;;;5.13;3.83;;;16.20;96.50;;;;;;5050026;28;20274;-71
2021/05/28 04:23:46;;;;;;;4.00;3.67;;;16.20;96.40;;;;;;5050364;28;20175;-71
2021/05/28 04:26:11;;;;;;;4.97;3.70;;;16.20;96.60;;;;;;5050526;28;20184;-71
2021/05/28 04:28:37;;;;;;;4.28;3.88;;;16.30;96.40;;;;;;5050809;28;20175;-72
2021/05/28 04:31:03;;;;;;;4.28;3.72;;;16.30;96.40;;;;;;5051385;28;20183;-73
2021/05/28 04:33:29;;;;;;;3.65;3.35;;;16.30;96.30;;;;;;5051679;28;20188;-72
2021/05/28 04:35:55;;;;;;;3.65;3.33;;;16.30;96.30;;;;;;5051085;28;20183;-73
2021/05/28 04:38:21;;;;;;;4.00;3.70;;;16.40;96.20;;;;;;5050311;28;20187;-73
2021/05/28 04:40:48;;;;;;;7.43;3.47;;;16.40;96.20;;;;;;5050622;28;20190;-72
2021/05/28 04:43:14;;;;;;;3.17;3.08;;;16.40;95.90;;;;;;5050600;28;20207;-72
2021/05/28 04:45:39;;;;;;;3.75;3.45;;;16.50;95.90;;;;;;5049383;28;20279;-71
2021/05/28 04:48:06;;;;;;;3.42;3.33;;;16.50;95.50;;;;;;5050361;28;20194;-71
2021/05/28 04:50:32;;;;;;;3.50;3.30;;;16.50;95.40;;;;;;5050555;28;20180;-72
2021/05/28 04:53:02;;;;;;;3.67;3.47;;;16.60;95.50;;;;;;5050765;28;20206;-72
2021/05/28 04:55:29;;;;;;;4.15;3.55;;;16.60;95.20;;;;;;5050698;28;20184;-71
2021/05/28 04:57:54;;;;;;;2.92;2.83;;;16.70;95.30;;;;;;5049758;28;20393;-72
2021/05/28 05:00:22;;;;;;;3.42;3.22;;;16.80;95.20;;;;;;5048996;28;20176;-72
2021/05/28 05:02:48;;;;;;;3.88;3.63;;;16.90;95.20;;;;;;5049691;28;20626;-72
2021/05/28 05:05:15;;;;;;;4.18;3.90;;;17.00;95.10;;;;;;5049888;28;20241;-71
2021/05/28 05:07:40;;;;;;;3.70;3.60;;;17.00;94.50;;;;;;5040694;28;20253;-72
2021/05/28 05:10:07;;;;;;;4.47;3.63;;;17.10;94.40;;;;;;5048309;28;20179;-72
2021/05/28 05:12:34;;;;;;;5.80;3.55;;;17.10;94.30;;;;;;5053249;28;20187;-71
2021/05/28 05:14:59;;;;;;;4.07;3.85;;;17.10;94.10;;;;;;5058736;28;20200;-72
2021/05/28 05:17:25;;;;;;;3.67;3.47;;;17.20;94.00;;;;;;5051747;28;20990;-72
2021/05/28 05:19:51;;;;;;;4.13;3.83;;;17.20;93.70;;;;;;5046568;28;20823;-70
2021/05/28 05:22:17;;;;;;;6.22;3.60;;;17.20;93.60;;;;;;5046825;28;20299;-70
2021/05/28 05:24:42;;;;;;;4.25;3.95;;;17.20;93.60;;;;;;5046728;28;20191;-72
2021/05/28 05:27:08;;;;;;;4.88;3.85;;;17.10;93.50;;;;;;5046506;28;20586;-71
2021/05/28 05:29:34;;;;;;;3.33;3.13;;;17.10;93.30;;;;;;5047836;28;20176;-72
2021/05/28 05:32:00;;;;;;;3.58;3.38;;;17.00;93.10;;;;;;5052644;28;20191;-70
2021/05/28 05:34:26;;;;;;;3.13;2.97;;;16.90;93.10;;;;;;5056810;28;20568;-72
2021/05/28 05:36:51;;;;;;;2.55;2.45;;;16.90;93.10;;;;;;5058013;28;20619;-71
2021/05/28 05:39:17;;;;;;;2.50;2.40;;;16.80;93.40;;;;;;5057893;28;20190;-73
2021/05/28 05:41:43;;;;;;;7.85;3.20;;;16.80;93.30;;;;;;5056486;28;20271;-72
2021/05/28 05:44:09;;;;;;;2.47;2.38;;;16.80;93.50;;;;;;5057419;28;20241;-71
2021/05/28 05:46:34;;;;;;;2.40;2.30;;;16.70;93.50;;;;;;5056728;28;20199;-73
2021/05/28 05:49:00;;;;;;;2.03;1.92;;;16.70;93.40;;;;;;5058736;28;20175;-71
2021/05/28 05:51:26;;;;;;;1.95;1.95;;;16.70;93.20;;;;;;5058978;28;20182;-70
2021/05/28 05:53:52;;;;;;;1.85;1.75;;;16.70;93.30;;;;;;5052983;28;20247;-70
2021/05/28 05:56:18;;;;;;;1.83;1.73;;;16.80;93.40;;;;;;5058413;28;20191;-72
2021/05/28 05:58:44;;;;;;;2.08;1.88;;;16.80;93.30;;;;;;5054072;28;20188;-70
2021/05/28 06:01:09;;;;;;;1.92;1.92;;;16.90;93.30;;;;;;5055862;28;20172;-72
2021/05/28 06:03:35;;;;;;;2.08;1.98;;;16.90;92.90;;;;;;5060661;28;20217;-70
2021/05/28 06:06:20;;;;;;;2.10;2.00;;;17.00;93.00;;;;;;5058143;28;20179;-71
2021/05/28 06:08:46;;;;;;;3.03;1.90;;;17.00;93.00;;;;;;5058585;28;20180;-70
2021/05/28 06:11:11;;;;;;;1.48;1.48;;;17.10;92.70;;;;;;5053366;28;20570;-69
2021/05/28 06:13:37;;;;;;;1.58;1.58;;;17.10;92.00;;;;;;5056248;28;20184;-71
2021/05/28 06:16:03;;;;;;;1.10;1.10;;;17.10;91.50;;;;;;5055289;28;20696;-71
2021/05/28 06:18:29;;;;;;;1.55;1.45;;;17.10;91.20;;;;;;5056126;28;20188;-71
2021/05/28 06:20:55;;;;;;;1.27;1.05;;;17.20;90.90;;;;;;5060101;28;20198;-71
2021/05/28 06:23:20;;;;;;;1.27;1.15;;;17.20;90.20;;;;;;5056746;28;20296;-71
2021/05/28 06:25:47;;;;;;;1.30;1.20;;;17.20;90.20;;;;;;5056149;28;20214;-70
2021/05/28 06:28:14;;;;;;;1.27;1.20;;;17.30;90.20;;;;;;5056008;28;20613;-70
2021/05/28 06:30:40;;;;;;;1.35;1.05;;;17.30;90.50;;;;;;5055261;28;20905;-71
2021/05/28 06:33:07;;;;;;;3.67;1.42;;;17.40;90.70;;;;;;5055548;28;20256;-70
2021/05/28 06:35:35;;;;;;;1.40;1.30;;;17.50;90.60;;;;;;5054718;28;20614;-72
2021/05/28 06:38:01;;;;;;;3.85;1.38;;;17.60;90.60;;;;;;5052327;28;20214;-69
2021/05/28 06:40:27;;;;;;;2.17;0.85;;;17.70;90.40;;;;;;5054595;28;20210;-70
2021/05/28 06:42:53;;;;;;;1.08;1.00;;;17.70;89.80;;;;;;5057762;28;20219;-70
2021/05/28 06:45:19;;;;;;;1.00;1.00;;;17.90;90.00;;;;;;5054907;28;20190;-70
2021/05/28 06:47:47;;;;;;;0.88;0.88;;;18.00;90.00;;;;;;5057297;28;20597;-70
2021/05/28 06:50:15;;;;;;;2.72;1.30;;;18.10;89.10;;;;;;5056970;28;20184;-71
2021/05/28 06:52:41;;;;;;;1.23;1.23;;;18.30;88.90;;;;;;5059761;28;20320;-70
2021/05/28 06:55:08;;;;;;;2.75;1.23;;;18.50;87.70;;;;;;5055517;28;20189;-70
2021/05/28 06:57:35;;;;;;;1.58;1.48;;;18.70;86.80;;;;;;5054636;28;20183;-70
2021/05/28 07:00:01;;;;;;;1.63;1.33;;;18.80;86.10;;;;;;5056486;28;20183;-70
2021/05/28 07:02:28;;;;;;;1.08;1.08;;;19.00;85.70;;;;;;5054463;28;20210;-70
2021/05/28 07:04:53;;;;;;;1.52;1.42;;;19.20;86.00;;;;;;5055658;28;20190;-70
2021/05/28 07:07:19;;;;;;;1.00;1.00;;;19.30;85.00;;;;;;5057723;28;20187;-70
2021/05/28 07:09:45;;;;;;;1.00;1.00;;;19.40;84.70;;;;;;5056520;28;20272;-70
2021/05/28 07:12:11;;;;;;;0.90;0.90;;;19.60;84.00;;;;;;5057677;28;20214;-70
2021/05/28 07:14:38;;;;;;;1.73;0.98;;;19.70;83.20;;;;;;5053697;28;20225;-71
2021/05/28 07:17:04;;;;;;;1.73;1.20;;;19.80;83.10;;;;;;5054343;28;20207;-70
2021/05/28 07:19:31;;;;;;;0.98;0.98;;;19.90;81.20;;;;;;5059027;28;20286;-71
2021/05/28 07:21:57;;;;;;;1.58;1.48;;;19.80;81.00;;;;;;5053786;28;20214;-70
2021/05/28 07:24:22;;;;;;;4.60;1.05;;;19.70;80.80;;;;;;5053927;28;20180;-68
2021/05/28 07:26:48;;;;;;;1.10;1.10;;;19.70;81.00;;;;;;5056547;28;20668;-69
2021/05/28 07:29:14;;;;;;;1.65;1.30;;;19.70;80.80;;;;;;5056695;28;20187;-69
2021/05/28 07:31:40;;;;;;;1.00;1.00;;;19.70;80.80;;;;;;5056583;28;20186;-70
2021/05/28 07:34:06;;;;;;;2.80;1.38;;;19.80;80.90;;;;;;5055393;28;20182;-71
2021/05/28 07:36:32;;;;;;;2.35;1.70;;;19.90;80.50;;;;;;5054164;28;20206;-71
2021/05/28 07:38:58;;;;;;;4.93;1.95;;;20.00;80.00;;;;;;5055573;28;20782;-71
2021/05/28 07:41:24;;;;;;;4.07;1.60;;;20.00;79.60;;;;;;5055064;28;20183;-71
2021/05/28 07:43:49;;;;;;;2.10;2.00;;;19.90;79.70;;;;;;5057097;28;20179;-71
2021/05/28 07:46:15;;;;;;;2.17;2.17;;;19.80;79.80;;;;;;5055444;28;20187;-70
2021/05/28 07:48:41;;;;;;;2.42;2.33;;;19.70;79.80;;;;;;5054874;28;20622;-69
2021/05/28 07:51:06;;;;;;;2.60;2.50;;;19.60;79.60;;;;;;5057589;28;20183;-69
2021/05/28 07:53:32;;;;;;;2.72;2.63;;;19.50;78.90;;;;;;5056844;28;20270;-69
2021/05/28 07:56:00;;;;;;;2.70;2.63;;;19.40;79.70;;;;;;5056145;28;20214;-69
2021/05/28 07:58:29;;;;;;;2.95;2.85;;;19.40;79.80;;;;;;5056022;28;20664;-70
2021/05/28 08:00:54;;;;;;;2.63;2.47;;;19.40;80.20;;;;;;5055087;28;20183;-70
2021/05/28 08:03:20;;;;;;;8.48;2.60;;;19.40;80.50;;;;;;5052870;28;20207;-71
2021/05/28 08:05:49;;;;;;;2.63;2.53;;;19.40;80.80;;;;;;5053207;28;20191;-70
2021/05/28 08:08:15;;;;;;;2.17;2.17;;;19.30;80.90;;;;;;5050566;28;20175;-68
2021/05/28 08:10:42;;;;;;;3.65;2.38;;;19.30;80.60;;;;;;5055546;28;20274;-70
2021/05/28 08:13:07;;;;;;;2.65;2.58;;;19.20;80.70;;;;;;5056475;28;20190;-70
2021/05/28 08:15:33;;;;;;;2.50;2.40;;;19.10;81.10;;;;;;5056899;28;20187;-70
2021/05/28 08:17:59;;;;;;;2.60;2.60;;;18.90;81.40;;;;;;5057998;28;20550;-70
2021/05/28 08:20:25;;;;;;;2.83;2.72;;;18.90;82.00;;;;;;5055165;28;20179;-70
2021/05/28 08:22:52;;;;;;;2.63;2.60;;;18.80;82.30;;;;;;5049284;28;20247;-70
2021/05/28 08:25:18;;;;;;;2.85;2.75;;;18.80;82.10;;;;;;5053172;28;20202;-70
2021/05/28 08:27:43;;;;;;;3.28;3.17;;;18.80;82.10;;;;;;5054907;28;20183;-70
2021/05/28 08:30:10;;;;;;;3.17;3.08;;;18.50;82.40;;;;;;5056164;28;20183;-70
2021/05/28 08:32:36;;;;;;;3.97;3.72;;;18.30;82.70;;;;;;5056266;28;20191;-70
2021/05/28 08:35:02;;;;;;;5.78;5.30;;;17.90;82.30;;;;;;5057228;28;20183;-69
2021/05/28 08:37:28;;;;;;;6.38;5.60;;;17.50;80.70;;;;;;5053375;28;20269;-69
2021/05/28 08:39:54;;;;;;;6.57;6.07;;;16.90;81.60;;;;;;5053183;28;20966;-70
2021/05/28 08:42:20;;;;;;;6.70;6.10;;;16.60;82.30;;;;;;5059044;28;20225;-70
2021/05/28 08:44:48;;;;;;;6.78;6.28;;;16.40;83.10;;;;;;5056784;28;20567;-70
2021/05/28 08:47:16;;;;;;;9.23;7.53;;;16.20;83.50;;;;;;5059976;28;20263;-70
2021/05/28 08:49:46;;;;;;;8.43;7.63;;;15.90;83.80;;;;;;5056577;28;20210;-70
2021/05/28 08:52:12;;;;;;;8.52;7.82;;;15.70;84.20;;;;;;5058189;28;20240;-69
2021/05/28 08:54:38;;;;;;;14.32;7.75;;;15.60;85.00;;;;;;5059008;28;20585;-70
2021/05/28 08:57:04;;;;;;;10.10;8.43;;;15.40;85.80;;;;;;5054466;28;20680;-70
2021/05/28 08:59:30;;;;;;;7.97;7.32;;;15.20;87.20;;;;;;5058916;28;20194;-69
2021/05/28 09:01:55;;;;;;;8.32;7.03;;;15.10;88.10;;;;;;5058931;28;20611;-70
2021/05/28 09:04:21;;;;;;;6.82;6.32;;;15.00;89.10;;;;;;5058363;28;20182;-68
2021/05/28 09:06:48;;;;;;;11.63;7.85;;;14.90;90.20;;;;;;5061404;28;20187;-68
2021/05/28 09:09:18;;;;;;;7.60;7.00;;;14.90;91.30;;;;;;5063044;28;20671;-68
2021/05/28 09:12:01;;;;;;;8.20;7.47;;;14.70;92.50;;;;;;5060181;28;20650;-69
2021/05/28 09:14:39;;;;;;;7.55;6.88;;;14.60;93.10;;;;;;5058909;28;20210;-69
2021/05/28 09:17:11;;;;;;;6.88;6.38;;;14.50;92.80;;;;;;5057263;28;20277;-69
2021/05/28 09:19:38;;;;;;;8.13;7.32;;;14.50;93.60;;;;;;5058877;28;20191;-69
2021/05/28 09:22:06;;;;;;;7.88;7.18;;;14.50;94.20;;;;;;5055085;28;20207;-69
2021/05/28 09:24:38;;;;;;;7.82;7.05;;;14.40;93.70;;;;;;5050131;28;20175;-69
2021/05/28 09:27:28;;;;;;;8.60;6.65;;;14.40;93.50;;;;;;5057611;28;20187;-69
2021/05/28 09:30:13;;;;;;;7.78;6.88;;;14.30;93.40;;;;;;5055859;28;20240;-69
2021/05/28 09:32:43;;;;;;;7.95;7.15;;;14.40;93.80;;;;;;5056802;28;20196;-69
2021/05/28 09:35:21;;;;;;;7.88;7.05;;;14.30;93.80;;;;;;5056120;28;20602;-69
2021/05/28 09:37:50;;;;;;;7.20;6.47;;;14.30;94.00;;;;;;5054295;28;20182;-68
2021/05/28 09:40:21;;;;;;;8.15;7.35;;;14.30;94.10;;;;;;5055078;28;20515;-69
2021/05/28 09:42:50;;;;;;;7.13;6.57;;;14.40;94.20;;;;;;5054909;28;20325;-69
2021/05/28 09:45:40;;;;;;;7.22;6.63;;;14.40;94.50;;;;;;5055783;28;20576;-68
2021/05/28 09:48:14;;;;;;;7.45;6.60;;;14.40;94.00;;;;;;5055941;28;20199;-70
2021/05/28 09:50:56;;;;;;;7.50;6.90;;;14.50;94.20;;;;;;5056911;28;20186;-70
2021/05/28 09:53:30;;;;;;;13.55;7.95;;;14.40;94.20;;;;;;5053421;28;20187;-70
2021/05/28 09:55:58;;;;;;;7.90;7.20;;;14.50;94.30;;;;;;5055462;28;20664;-71
2021/05/28 09:58:24;;;;;;;7.50;6.80;;;14.40;93.90;;;;;;5055188;28;20676;-69
2021/05/28 10:00:50;;;;;;;7.80;7.13;;;14.40;93.80;;;;;;5053796;28;20186;-70
2021/05/28 10:03:26;;;;;;;7.00;6.32;;;14.30;94.00;;;;;;5054314;28;20225;-70
2021/05/28 10:05:58;;;;;;;6.93;6.32;;;14.30;93.90;;;;;;5057216;28;20900;-70
2021/05/28 10:08:26;;;;;;;6.57;6.00;;;14.30;94.10;;;;;;5054839;28;20213;-70
2021/05/28 10:10:53;;;;;;;6.35;5.88;;;14.30;94.10;;;;;;5051914;28;20183;-68
2021/05/28 10:13:21;;;;;;;6.40;6.00;;;14.30;93.70;;;;;;5057069;28;20208;-69
2021/05/28 10:15:49;;;;;;;4.72;4.45;;;14.20;94.00;;;;;;5053376;28;20192;-70
2021/05/28 10:18:16;;;;;;;6.10;5.65;;;14.20;93.70;;;;;;5060186;28;20207;-69
2021/05/28 10:20:54;;;;;;;5.45;5.07;;;14.20;93.80;;;;;;5049058;28;20234;-70
2021/05/28 10:23:23;;;;;;;5.65;5.28;;;14.20;93.80;;;;;;5056241;28;20211;-70
2021/05/28 10:25:55;;;;;;;4.63;4.25;;;14.20;94.00;;;;;;5056196;28;20208;-71
2021/05/28 10:28:29;;;;;;;4.88;4.47;;;14.20;93.80;;;;;;5056670;28;20193;-71
2021/05/28 10:30:55;;;;;;;4.28;4.07;;;14.20;93.20;;;;;;5054139;28;20269;-71
2021/05/28 10:33:30;;;;;;;4.22;4.03;;;14.20;93.00;;;;;;5053725;28;20353;-69
2021/05/28 10:36:01;;;;;;;4.00;3.80;;;14.20;92.60;;;;;;5054475;28;20179;-70
2021/05/28 10:38:29;;;;;;;6.88;4.38;;;14.20;92.90;;;;;;5055793;28;20309;-70
2021/05/28 10:41:04;;;;;;;3.92;3.80;;;14.20;92.70;;;;;;5055144;28;20179;-72
2021/05/28 10:43:31;;;;;;;4.85;4.55;;;14.20;93.20;;;;;;5055699;28;20514;-70
2021/05/28 10:46:00;;;;;;;4.70;4.30;;;14.20;93.00;;;;;;5055145;28;20288;-70
2021/05/28 10:48:42;;;;;;;4.82;4.53;;;14.20;93.00;;;;;;5055864;28;20183;-69
2021/05/28 10:51:12;;;;;;;7.03;4.68;;;14.30;93.00;;;;;;5054167;28;20195;-68
2021/05/28 10:53:59;;;;;;;4.20;3.97;;;14.30;93.50;;;;;;5056525;28;20183;-69
2021/05/28 10:56:27;;;;;;;4.03;3.88;;;14.30;93.20;;;;;;5022791;28;20283;-69
2021/05/28 10:58:57;;;;;;;4.10;3.90;;;14.30;93.10;;;;;;5023113;28;20225;-69
2021/05/28 11:01:35;;;;;;;3.95;3.75;;;14.40;92.60;;;;;;5023207;28;20234;-68
2021/05/28 11:04:09;;;;;;;3.70;3.53;;;14.40;92.30;;;;;;5024228;28;20192;-69
2021/05/28 11:06:55;;;;;;;3.83;3.63;;;14.40;91.90;;;;;;5026907;28;20224;-69
2021/05/28 11:09:40;;;;;;;4.07;3.85;;;14.50;92.30;;;;;;5022910;28;20281;-68
2021/05/28 11:12:07;;;;;;;4.50;4.30;;;14.50;92.20;;;;;;5027871;28;20585;-70
2021/05/28 11:14:36;;;;;;;5.18;4.68;;;14.60;92.60;;;;;;5030169;28;20290;-70
2021/05/28 11:17:05;;;;;;;5.75;5.35;;;14.70;92.30;;;;;;5036709;28;20222;-69
2021/05/28 11:19:33;;;;;;;10.40;5.38;;;14.70;92.40;;;;;;5030188;28;20177;-69
2021/05/28 11:22:04;;;;;;;5.47;5.05;;;14.70;92.30;;;;;;5025523;28;20216;-69
2021/05/28 11:24:49;;;;;;;5.22;4.93;;;14.70;91.90;;;;;;5029869;28;20184;-69
2021/05/28 11:27:40;;;;;;;4.80;4.50;;;14.70;91.80;;;;;;5029616;28;20943;-69
2021/05/28 11:30:05;;;;;;;5.03;4.75;;;14.70;90.80;;;;;;5029932;28;20214;-70
2021/05/28 11:32:44;;;;;;;5.35;5.00;;;14.60;90.00;;;;;;5031961;28;20634;-70
2021/05/28 11:35:22;;;;;;;5.05;4.75;;;14.60;90.00;;;;;;5044194;28;20214;-70
2021/05/28 11:38:01;;;;;;;5.13;4.82;;;14.50;90.10;;;;;;5041538;28;20211;-70
2021/05/28 11:40:31;;;;;;;5.55;5.13;;;14.50;90.20;;;;;;5043988;28;20179;-70
2021/05/28 11:43:12;;;;;;;5.85;5.45;;;14.50;90.60;;;;;;5046260;28;20222;-70
2021/05/28 11:45:40;;;;;;;5.00;4.70;;;14.40;90.90;;;;;;5043639;28;20190;-69
2021/05/28 11:48:12;;;;;;;4.03;3.78;;;14.40;90.90;;;;;;5048379;28;20201;-70
2021/05/28 11:50:40;;;;;;;4.35;4.05;;;14.30;90.70;;;;;;5040625;28;20187;-69
2021/05/28 11:53:10;;;;;;;4.53;4.13;;;14.30;90.70;;;;;;5049034;28;20189;-69
2021/05/28 11:55:53;;;;;;;3.35;3.25;;;14.30;90.70;;;;;;5045878;28;20188;-70
2021/05/28 11:58:20;;;;;;;3.90;3.53;;;14.30;90.50;;;;;;5046862;28;20755;-70
2021/05/28 12:00:48;;;;;;;4.80;3.63;;;14.30;90.70;;;;;;5046983;28;20187;-70
2021/05/28 12:03:14;;;;;;;4.38;4.18;;;14.30;90.50;;;;;;5044264;28;20608;-71
2021/05/28 12:05:42;;;;;;;3.83;3.53;;;14.30;90.90;;;;;;5045594;28;20191;-70
2021/05/28 12:08:10;;;;;;;5.00;3.92;;;14.30;90.70;;;;;;5044151;28;20207;-70
2021/05/28 12:10:44;;;;;;;3.78;3.58;;;14.30;90.40;;;;;;5045515;28;20180;-70
2021/05/28 12:13:15;;;;;;;3.53;3.42;;;14.30;90.60;;;;;;5045346;28;20565;-70
2021/05/28 12:15:45;;;;;;;3.78;3.67;;;14.40;90.40;;;;;;5050765;28;20203;-69
2021/05/28 12:18:27;;;;;;;4.15;3.95;;;14.40;90.30;;;;;;5051003;28;20675;-70
2021/05/28 12:21:05;;;;;;;3.78;3.58;;;14.50;90.20;;;;;;5049445;28;20228;-69
2021/05/28 12:23:38;;;;;;;4.38;4.10;;;14.50;89.80;;;;;;5049742;28;20211;-70
2021/05/28 12:26:10;;;;;;;5.07;3.88;;;14.60;89.60;;;;;;5051764;28;20290;-71
2021/05/28 12:28:38;;;;;;;3.15;3.05;;;14.70;89.70;;;;;;5048894;28;20656;-69
2021/05/28 12:31:22;;;;;;;4.25;3.88;;;14.80;89.50;;;;;;5044546;28;20184;-69
2021/05/28 12:33:58;;;;;;;4.20;3.90;;;14.70;89.10;;;;;;5050261;28;20183;-69
2021/05/28 12:36:40;;;;;;;4.10;3.80;;;14.80;89.10;;;;;;5050657;28;20638;-70
2021/05/28 12:39:11;;;;;;;4.10;3.80;;;14.80;89.10;;;;;;5050691;28;20175;-71
2021/05/28 12:41:39;;;;;;;3.78;3.67;;;14.80;88.80;;;;;;5048900;28;20188;-71
2021/05/28 12:44:06;;;;;;;3.20;3.10;;;14.90;88.90;;;;;;5052528;28;20190;-71
2021/05/28 12:46:39;;;;;;;4.15;3.95;;;14.90;88.90;;;;;;5059665;28;20178;-72
2021/05/28 12:49:05;;;;;;;4.00;3.70;;;15.00;88.30;;;;;;5058856;28;20652;-72
2021/05/28 12:51:40;;;;;;;3.40;3.28;;;15.00;87.90;;;;;;5059142;28;20616;-69